Time;durP1;ratioP1;P1;durP2;ratioP2;P2;SDS_P1;SDS_P2;PMS_P1;PMS_P2;Temp;Humidity;BMP_temperature;BMP_pressure;BME280_temperature;BME280_humidity;BME280_pressure;Samples;Min_cycle;Max_cycle;Signal;HPM_P1;HPM_P2
2024/01/01 00:03:09;;;;;;;14.70;2.37;;;;;6.50;99434.00;;;;9844303;29;20261;-81
2024/01/01 00:08:10;;;;;;;12.70;3.13;;;;;6.40;99424.00;;;;9886702;29;20917;-82
2024/01/01 00:13:11;;;;;;;12.67;3.47;;;;;6.40;99415.00;;;;9859059;29;20236;-82
2024/01/01 00:18:14;;;;;;;15.47;3.47;;;;;6.40;99436.00;;;;9867059;29;20266;-82
2024/01/01 00:23:15;;;;;;;12.87;3.73;;;;;6.40;99443.00;;;;9854729;29;20267;-82
2024/01/01 00:28:17;;;;;;;13.63;3.23;;;;;6.40;99415.00;;;;9841930;29;20228;-83
2024/01/01 00:33:18;;;;;;;11.17;2.93;;;;;6.30;99422.00;;;;9847046;29;20257;-83
2024/01/01 00:38:19;;;;;;;10.90;3.47;;;;;6.30;99426.00;;;;9847061;29;20231;-82
2024/01/01 00:43:21;;;;;;;13.07;2.43;;;;;6.30;99408.00;;;;9860074;29;20231;-82
2024/01/01 00:48:22;;;;;;;10.23;2.47;;;;;6.30;99414.00;;;;9854819;29;20239;-83
2024/01/01 00:53:23;;;;;;;14.77;4.03;;;;;6.40;99416.00;;;;9843469;29;20242;-83
2024/01/01 00:58:24;;;;;;;4.40;1.80;;;;;6.40;99444.00;;;;9851622;29;20905;-83
2024/01/01 01:03:26;;;;;;;22.10;3.37;;;;;6.40;99444.00;;;;9855755;29;20259;-82
2024/01/01 01:08:27;;;;;;;13.87;3.30;;;;;6.40;99447.00;;;;9855107;29;20262;-81
2024/01/01 01:13:28;;;;;;;11.00;2.43;;;;;6.40;99455.00;;;;9873322;29;20239;-82
2024/01/01 01:18:29;;;;;;;21.47;3.83;;;;;6.40;99447.00;;;;9839632;29;20313;-81
2024/01/01 01:23:30;;;;;;;15.03;3.83;;;;;6.40;99438.00;;;;9851068;29;20603;-81
2024/01/01 01:28:32;;;;;;;13.13;2.40;;;;;6.40;99441.00;;;;9847000;29;20323;-83
2024/01/01 01:33:33;;;;;;;16.60;3.33;;;;;6.40;99465.00;;;;9859002;29;20235;-82
2024/01/01 01:38:35;;;;;;;13.37;2.53;;;;;6.40;99457.00;;;;9884499;29;20232;-81
2024/01/01 01:43:36;;;;;;;27.77;4.70;;;;;6.40;99472.00;;;;9869849;29;20271;-82
2024/01/01 01:48:38;;;;;;;15.70;3.47;;;;;6.30;99490.00;;;;9865823;29;20236;-84
2024/01/01 01:53:40;;;;;;;14.67;2.90;;;;;6.30;99483.00;;;;9876121;29;21074;-83
2024/01/01 01:58:43;;;;;;;14.73;2.70;;;;;6.30;99467.00;;;;9853263;29;20263;-84
2024/01/01 02:03:45;;;;;;;15.77;3.40;;;;;6.30;99489.00;;;;9845727;29;20726;-86
2024/01/01 02:08:46;;;;;;;15.40;2.73;;;;;6.30;99488.00;;;;9859694;29;20235;-86
2024/01/01 02:13:47;;;;;;;11.60;2.37;;;;;6.30;99479.00;;;;9885374;29;20307;-87
2024/01/01 02:18:49;;;;;;;10.07;2.73;;;;;6.20;99472.00;;;;9858286;29;20873;-85
2024/01/01 02:23:50;;;;;;;17.70;3.17;;;;;6.20;99485.00;;;;9868292;29;20903;-85
2024/01/01 02:28:51;;;;;;;16.17;3.30;;;;;6.20;99484.00;;;;9844301;29;20308;-86
2024/01/01 02:33:52;;;;;;;13.83;2.87;;;;;6.20;99490.00;;;;9871310;29;20254;-86
2024/01/01 02:38:54;;;;;;;18.17;2.73;;;;;6.20;99483.00;;;;9855150;29;20234;-87
2024/01/01 02:43:55;;;;;;;14.53;3.40;;;;;6.20;99501.00;;;;9872873;29;20701;-86
2024/01/01 02:48:56;;;;;;;19.93;2.87;;;;;6.20;99507.00;;;;9862694;29;20242;-83
2024/01/01 02:53:58;;;;;;;12.63;2.97;;;;;6.10;99520.00;;;;9860786;29;20236;-84
2024/01/01 02:59:00;;;;;;;10.30;2.70;;;;;6.10;99532.00;;;;9852429;29;20270;-84
2024/01/01 03:04:02;;;;;;;6.27;1.83;;;;;6.20;99510.00;;;;9859379;29;20231;-85
2024/01/01 03:09:03;;;;;;;12.00;2.40;;;;;6.30;99539.00;;;;9853433;29;20242;-88
2024/01/01 03:14:04;;;;;;;16.43;2.73;;;;;6.30;99554.00;;;;9859646;29;20691;-87
2024/01/01 03:19:05;;;;;;;10.40;2.30;;;;;6.20;99541.00;;;;9864308;29;20235;-81
2024/01/01 03:24:07;;;;;;;10.43;2.17;;;;;6.20;99519.00;;;;9854972;29;20242;-79
2024/01/01 03:29:08;;;;;;;18.30;3.00;;;;;6.10;99536.00;;;;9872132;29;20816;-80
2024/01/01 03:34:09;;;;;;;4.90;1.13;;;;;6.10;99541.00;;;;9863720;29;20701;-78
2024/01/01 03:39:10;;;;;;;11.33;2.37;;;;;6.20;99540.00;;;;9866220;29;20595;-82
2024/01/01 03:44:12;;;;;;;9.70;2.07;;;;;6.20;99547.00;;;;9844783;29;20281;-80
2024/01/01 03:49:13;;;;;;;9.53;2.57;;;;;6.30;99566.00;;;;9860680;29;20239;-79
2024/01/01 03:54:14;;;;;;;13.93;2.70;;;;;6.20;99535.00;;;;9860837;29;20269;-78
2024/01/01 03:59:16;;;;;;;10.97;2.40;;;;;6.20;99531.00;;;;9876475;29;20239;-82
2024/01/01 04:04:17;;;;;;;9.30;2.10;;;;;6.20;99536.00;;;;9833276;29;20270;-80
2024/01/01 04:09:18;;;;;;;12.23;2.23;;;;;6.20;99539.00;;;;9843054;29;21152;-79
2024/01/01 04:14:20;;;;;;;11.83;2.00;;;;;6.20;99550.00;;;;9842420;29;20296;-78
2024/01/01 04:19:24;;;;;;;5.40;1.37;;;;;6.00;99566.00;;;;9867916;29;20246;-78
2024/01/01 04:24:25;;;;;;;11.13;2.13;;;;;6.00;99565.00;;;;9853776;29;20238;-82
2024/01/01 04:29:26;;;;;;;10.00;2.30;;;;;6.00;99576.00;;;;9840870;29;20595;-88
2024/01/01 04:34:27;;;;;;;12.20;2.07;;;;;6.00;99575.00;;;;9861146;29;20278;-85
2024/01/01 04:39:29;;;;;;;12.00;1.97;;;;;6.00;99579.00;;;;9857835;29;20246;-85
2024/01/01 04:44:30;;;;;;;9.47;1.77;;;;;6.00;99576.00;;;;9860550;29;20270;-87
2024/01/01 04:49:31;;;;;;;14.03;2.60;;;;;6.10;99586.00;;;;9846528;29;20330;-86
2024/01/01 04:54:32;;;;;;;7.57;2.07;;;;;6.10;99573.00;;;;9889186;29;20285;-88
2024/01/01 04:59:33;;;;;;;11.60;2.57;;;;;6.00;99576.00;;;;9871684;29;20381;-85
2024/01/01 05:04:35;;;;;;;13.33;2.50;;;;;6.00;99598.00;;;;9841061;29;20262;-86
2024/01/01 05:09:36;;;;;;;9.50;2.23;;;;;5.90;99591.00;;;;9858837;29;20255;-84
2024/01/01 05:14:37;;;;;;;9.33;1.87;;;;;5.80;99589.00;;;;9839123;29;20314;-84
2024/01/01 05:19:38;;;;;;;15.80;2.47;;;;;5.80;99599.00;;;;9875365;29;20239;-85
2024/01/01 05:24:40;;;;;;;6.00;1.83;;;;;5.80;99598.00;;;;9862505;29;20300;-86
2024/01/01 05:29:42;;;;;;;10.17;2.30;;;;;5.90;99610.00;;;;9855855;29;20234;-85
2024/01/01 05:34:43;;;;;;;12.70;2.47;;;;;5.90;99617.00;;;;9870638;29;20243;-85
2024/01/01 05:39:44;;;;;;;13.47;2.10;;;;;5.90;99626.00;;;;9873790;29;20231;-85
2024/01/01 05:44:45;;;;;;;10.03;1.80;;;;;6.00;99625.00;;;;9869392;29;20263;-86
2024/01/01 05:49:47;;;;;;;8.77;2.00;;;;;6.10;99625.00;;;;9881387;29;20324;-86
2024/01/01 05:54:49;;;;;;;14.90;2.17;;;;;6.10;99632.00;;;;9875572;29;20550;-84
2024/01/01 05:59:50;;;;;;;11.17;2.03;;;;;6.10;99656.00;;;;9858611;29;20277;-85
2024/01/01 06:04:51;;;;;;;7.57;2.40;;;;;6.10;99666.00;;;;9866376;29;20310;-86
2024/01/01 06:09:52;;;;;;;4.03;1.30;;;;;6.10;99656.00;;;;9854367;29;20326;-87
2024/01/01 06:14:54;;;;;;;8.87;1.93;;;;;6.00;99664.00;;;;9847327;29;20734;-87
2024/01/01 06:19:56;;;;;;;10.57;1.77;;;;;6.00;99682.00;;;;9874670;29;20231;-88
2024/01/01 06:24:57;;;;;;;11.23;2.13;;;;;6.00;99691.00;;;;9872635;29;21073;-90
2024/01/01 06:29:58;;;;;;;7.30;1.57;;;;;6.00;99685.00;;;;9870886;29;20529;-89
2024/01/01 06:34:59;;;;;;;11.27;1.83;;;;;6.00;99695.00;;;;9853465;29;20493;-85
2024/01/01 06:40:01;;;;;;;11.37;1.67;;;;;6.00;99709.00;;;;9883257;29;20230;-85
2024/01/01 06:45:07;;;;;;;8.10;1.90;;;;;6.00;99712.00;;;;9905054;29;20239;-86
2024/01/01 06:50:09;;;;;;;7.13;2.10;;;;;6.00;99712.00;;;;9888987;29;20288;-80
2024/01/01 06:55:10;;;;;;;15.23;3.10;;;;;5.90;99726.00;;;;9842393;29;21377;-79
2024/01/01 07:00:12;;;;;;;12.70;2.00;;;;;5.80;99732.00;;;;9844027;29;20357;-80
2024/01/01 07:05:13;;;;;;;9.70;2.30;;;;;5.90;99752.00;;;;9863093;29;20235;-79
2024/01/01 07:10:15;;;;;;;7.13;1.40;;;;;5.90;99751.00;;;;9849388;29;20243;-81
2024/01/01 07:15:16;;;;;;;10.60;2.00;;;;;6.00;99765.00;;;;9874333;29;20963;-80
2024/01/01 07:20:17;;;;;;;11.90;2.43;;;;;6.10;99781.00;;;;9848082;29;20952;-82
2024/01/01 07:25:18;;;;;;;6.57;1.87;;;;;6.10;99785.00;;;;9865332;29;20322;-80
2024/01/01 07:30:20;;;;;;;14.10;2.07;;;;;6.10;99803.00;;;;9851490;29;20226;-81
2024/01/01 07:35:21;;;;;;;7.97;1.83;;;;;6.10;99809.00;;;;9871566;29;20242;-79
2024/01/01 07:40:22;;;;;;;12.97;2.33;;;;;6.20;99824.00;;;;9878051;29;20755;-80
2024/01/01 07:45:23;;;;;;;7.97;1.87;;;;;6.20;99826.00;;;;9864441;29;20293;-80
2024/01/01 07:50:25;;;;;;;6.20;1.40;;;;;6.10;99833.00;;;;9844788;29;20228;-81
2024/01/01 07:55:26;;;;;;;11.43;2.40;;;;;6.10;99848.00;;;;9848458;29;20239;-79
2024/01/01 08:00:27;;;;;;;10.27;2.43;;;;;6.00;99826.00;;;;9836384;29;20278;-88
2024/01/01 08:05:28;;;;;;;11.37;2.27;;;;;6.00;99836.00;;;;9855565;29;20242;-88
2024/01/01 08:10:30;;;;;;;10.87;2.27;;;;;6.10;99858.00;;;;9880464;29;20239;-85
2024/01/01 08:15:31;;;;;;;11.63;2.00;;;;;6.10;99862.00;;;;9874721;29;21172;-87
2024/01/01 08:20:32;;;;;;;13.20;2.40;;;;;6.10;99862.00;;;;9853859;29;20717;-86
2024/01/01 08:25:34;;;;;;;14.07;1.97;;;;;6.20;99874.00;;;;9870447;29;20230;-85
2024/01/01 08:30:35;;;;;;;15.47;2.37;;;;;6.20;99883.00;;;;9874276;29;20303;-86
2024/01/01 08:35:36;;;;;;;12.10;3.03;;;;;6.20;99883.00;;;;9882822;29;20284;-86
2024/01/01 08:40:37;;;;;;;11.67;2.30;;;;;6.30;99887.00;;;;9854767;29;20318;-86
2024/01/01 08:45:39;;;;;;;19.00;3.13;;;;;6.40;99909.00;;;;9870773;29;20228;-87
2024/01/01 08:50:40;;;;;;;15.27;2.93;;;;;6.50;99912.00;;;;9838327;29;20259;-86
2024/01/01 08:55:41;;;;;;;9.63;1.83;;;;;6.50;99914.00;;;;9875037;29;20247;-86
2024/01/01 09:00:43;;;;;;;13.80;2.50;;;;;6.60;99923.00;;;;9849434;29;20235;-85
2024/01/01 09:05:44;;;;;;;14.07;3.00;;;;;6.70;99935.00;;;;9848154;29;20595;-86
2024/01/01 09:10:45;;;;;;;14.40;2.43;;;;;6.80;99945.00;;;;9851421;29;20310;-81
2024/01/01 09:15:47;;;;;;;14.43;2.20;;;;;6.90;99950.00;;;;9848669;29;20369;-80
2024/01/01 09:20:48;;;;;;;8.47;2.20;;;;;7.20;99951.00;;;;9841107;29;20246;-80
2024/01/01 09:25:50;;;;;;;12.87;2.67;;;;;7.30;99959.00;;;;9880387;29;20279;-79
2024/01/01 09:30:53;;;;;;;11.20;1.93;;;;;7.40;99956.00;;;;9853612;29;20232;-79
2024/01/01 09:35:55;;;;;;;11.63;2.33;;;;;7.40;99981.00;;;;9860731;29;20796;-79
2024/01/01 09:40:56;;;;;;;6.33;1.67;;;;;7.40;99988.00;;;;9867955;29;20243;-80
2024/01/01 09:45:57;;;;;;;10.00;2.63;;;;;7.70;99993.00;;;;9873751;29;20233;-80
2024/01/01 09:51:02;;;;;;;10.00;2.20;;;;;7.90;99994.00;;;;9860230;29;20257;-82
2024/01/01 09:56:03;;;;;;;13.77;2.27;;;;;7.90;100013.00;;;;9869883;29;20244;-80
2024/01/01 10:01:10;;;;;;;9.50;2.13;;;;;8.00;100030.00;;;;9844853;29;20230;-79
2024/01/01 10:06:12;;;;;;;12.10;3.60;;;;;8.00;100026.00;;;;9853252;29;20270;-84
2024/01/01 10:11:20;;;;;;;10.10;3.83;;;;;7.90;100028.00;;;;9849082;29;20266;-81
2024/01/01 10:16:25;;;;;;;11.33;3.10;;;;;7.90;100034.00;;;;9841794;29;20307;-79
2024/01/01 10:21:30;;;;;;;22.03;4.17;;;;;7.90;100037.00;;;;9872227;29;20281;-80
2024/01/01 10:26:39;;;;;;;14.20;3.53;;;;;8.00;100034.00;;;;9860416;29;20327;-80
2024/01/01 10:31:45;;;;;;;14.07;3.97;;;;;8.20;100037.00;;;;9855623;29;20318;-81
2024/01/01 10:36:50;;;;;;;20.70;4.30;;;;;8.50;100047.00;;;;9877613;29;20235;-82
2024/01/01 10:41:52;;;;;;;13.40;3.57;;;;;8.80;100037.00;;;;9878614;29;20239;-84
2024/01/01 10:46:57;;;;;;;19.57;5.03;;;;;9.00;100049.00;;;;9864791;29;20932;-83
2024/01/01 10:52:22;;;;;;;18.90;4.30;;;;;9.30;100045.00;;;;9882368;29;20870;-81
2024/01/01 10:58:11;;;;;;;14.63;4.03;;;;;9.30;100047.00;;;;9864579;29;20312;-81
2024/01/01 11:03:14;;;;;;;13.63;3.67;;;;;9.30;100046.00;;;;9820890;29;20331;-83
2024/01/01 11:08:26;;;;;;;14.27;3.53;;;;;9.40;100052.00;;;;9864402;29;20249;-84
2024/01/01 11:13:27;;;;;;;22.60;4.80;;;;;9.50;100046.00;;;;9862246;29;20231;-81
2024/01/01 11:18:37;;;;;;;21.70;3.90;;;;;9.60;100057.00;;;;9863896;29;20298;-81
2024/01/01 11:23:45;;;;;;;17.20;3.90;;;;;9.80;100066.00;;;;9867180;29;20267;-81
2024/01/01 11:28:46;;;;;;;19.60;4.20;;;;;9.90;100077.00;;;;9867326;29;20372;-82
2024/01/01 11:34:05;;;;;;;21.57;5.53;;;;;9.80;100078.00;;;;9867192;29;20837;-81
2024/01/01 11:39:26;;;;;;;18.30;4.17;;;;;9.80;100078.00;;;;9868367;29;20239;-79
2024/01/01 11:44:27;;;;;;;13.63;3.17;;;;;9.50;100067.00;;;;9848845;29;20247;-80
2024/01/01 11:49:28;;;;;;;14.30;3.53;;;;;9.40;100078.00;;;;9850421;29;20954;-79
2024/01/01 11:54:30;;;;;;;18.40;3.17;;;;;9.40;100083.00;;;;9852443;29;20243;-81
2024/01/01 11:59:31;;;;;;;16.40;3.57;;;;;9.30;100087.00;;;;9881880;29;20875;-81
2024/01/01 12:04:32;;;;;;;13.70;2.77;;;;;9.20;100070.00;;;;9865075;29;20255;-78
2024/01/01 12:09:33;;;;;;;12.37;3.70;;;;;9.40;100076.00;;;;9863521;29;20269;-81
2024/01/01 12:14:35;;;;;;;16.97;4.07;;;;;9.50;100099.00;;;;9860852;29;20235;-79
2024/01/01 12:19:36;;;;;;;15.87;4.03;;;;;9.40;100090.00;;;;9862468;29;20243;-80
2024/01/01 12:24:37;;;;;;;13.97;3.10;;;;;9.40;100090.00;;;;9876744;29;20239;-80
2024/01/01 12:29:49;;;;;;;21.03;3.80;;;;;9.30;100093.00;;;;9851889;29;21016;-80
2024/01/01 12:34:51;;;;;;;20.83;3.80;;;;;9.20;100084.00;;;;9884191;29;20301;-80
2024/01/01 12:39:53;;;;;;;18.03;3.93;;;;;9.10;100075.00;;;;9880945;29;20230;-87
2024/01/01 12:45:12;;;;;;;17.90;4.35;;;;;9.10;100093.00;;;;10820386;24;20214;31
2024/01/01 12:50:13;;;;;;;16.30;3.80;;;;;9.00;100091.00;;;;10431514;24;20446;-85
2024/01/01 12:55:15;;;;;;;18.13;3.10;;;;;9.00;100091.00;;;;10103677;24;20675;-86
2024/01/01 13:00:17;;;;;;;13.40;3.63;;;;;8.80;100101.00;;;;10421155;24;20266;-85
2024/01/01 13:05:18;;;;;;;14.50;3.17;;;;;8.80;100096.00;;;;10598509;24;20239;-85
2024/01/01 13:10:51;;;;;;;13.50;3.10;;;;;8.60;100092.00;;;;9986449;24;20236;31
2024/01/01 13:15:52;;;;;;;16.00;3.13;;;;;8.40;100106.00;;;;10412200;24;20253;-85
2024/01/01 13:20:54;;;;;;;21.07;3.87;;;;;8.20;100109.00;;;;10085941;24;20222;-85
2024/01/01 13:25:55;;;;;;;14.90;3.33;;;;;8.20;100109.00;;;;10521737;24;20252;-85
2024/01/01 13:31:39;;;;;;;12.47;3.43;;;;;8.30;100105.00;;;;3089999;24;20411;-86
2024/01/01 13:37:01;;;;;;;13.50;4.30;;;;;8.40;100110.00;;;;7729468;24;21099;-86
2024/01/01 13:54:47;;;;;;;14.20;3.40;;;;;8.50;100141.00;;;;10559857;24;20414;-84
2024/01/01 14:05:38;;;;;;;13.10;3.63;;;;;8.50;100141.00;;;;10110302;24;20245;-86
2024/01/01 14:10:41;;;;;;;14.40;3.40;;;;;8.50;100134.00;;;;10173188;24;20255;-84
2024/01/01 14:15:42;;;;;;;13.57;3.47;;;;;8.60;100133.00;;;;10427771;24;20219;-85
2024/01/01 14:20:51;;;;;;;22.35;3.75;;;;;8.60;100134.00;;;;10801955;24;21574;-86
2024/01/01 14:26:25;;;;;;;14.60;3.70;;;;;8.50;100117.00;;;;2700690;24;20241;-85
2024/01/01 14:31:26;;;;;;;11.97;3.23;;;;;8.30;100127.00;;;;10116510;24;20269;-85
2024/01/01 14:36:27;;;;;;;17.10;3.30;;;;;8.20;100130.00;;;;9899098;29;20231;-83
2024/01/01 14:41:31;;;;;;;21.20;4.13;;;;;8.10;100141.00;;;;9871636;29;20241;-85
2024/01/01 14:46:32;;;;;;;15.20;3.50;;;;;8.10;100132.00;;;;9865096;29;21020;-86
2024/01/01 14:51:35;;;;;;;13.40;3.53;;;;;8.20;100129.00;;;;9847470;29;20227;-85
2024/01/01 14:56:40;;;;;;;16.97;3.07;;;;;8.30;100139.00;;;;9878482;29;20238;-84
2024/01/01 15:01:41;;;;;;;18.00;2.93;;;;;8.20;100141.00;;;;9868009;29;20904;-86
2024/01/01 15:06:43;;;;;;;16.10;3.27;;;;;7.90;100137.00;;;;9889267;29;20607;-87
2024/01/01 15:11:44;;;;;;;9.37;2.63;;;;;7.70;100146.00;;;;9877398;29;20250;-89
2024/01/01 15:16:45;;;;;;;14.57;3.20;;;;;7.60;100138.00;;;;9873922;29;20238;-87
2024/01/01 15:21:46;;;;;;;13.23;2.87;;;;;7.50;100131.00;;;;9860787;29;20587;-85
2024/01/01 15:26:47;;;;;;;19.37;3.10;;;;;7.50;100134.00;;;;9899035;29;20243;-87
2024/01/01 15:31:49;;;;;;;18.10;3.40;;;;;7.50;100144.00;;;;9884346;29;20250;-87
2024/01/01 15:36:52;;;;;;;14.70;2.80;;;;;7.60;100142.00;;;;9897601;29;20733;-85
2024/01/01 15:41:54;;;;;;;15.60;2.97;;;;;7.60;100151.00;;;;9890404;29;20314;-87
2024/01/01 15:46:55;;;;;;;10.40;2.90;;;;;7.60;100153.00;;;;9875794;29;20231;-84
2024/01/01 15:51:56;;;;;;;18.33;3.60;;;;;7.50;100160.00;;;;9878776;29;20239;-87
2024/01/01 15:56:57;;;;;;;9.80;2.80;;;;;7.50;100168.00;;;;9865998;29;20235;-86
2024/01/01 16:01:58;;;;;;;10.33;3.30;;;;;7.50;100167.00;;;;9899130;29;20235;-85
2024/01/01 16:07:00;;;;;;;10.60;2.67;;;;;7.50;100167.00;;;;9874407;29;20239;-84
2024/01/01 16:12:01;;;;;;;10.80;2.70;;;;;7.50;100159.00;;;;9893728;29;20232;-78
2024/01/01 16:17:03;;;;;;;15.00;2.47;;;;;7.40;100158.00;;;;9890484;29;20726;-77
2024/01/01 16:22:08;;;;;;;6.93;2.63;;;;;7.40;100154.00;;;;9845122;29;20859;-77
2024/01/01 16:27:09;;;;;;;6.53;2.13;;;;;7.40;100160.00;;;;9885231;29;20243;-79
2024/01/01 16:32:12;;;;;;;4.17;1.40;;;;;7.40;100165.00;;;;9847100;29;20243;-80
2024/01/01 16:37:13;;;;;;;3.60;1.10;;;;;7.40;100172.00;;;;9889534;29;20249;-79
2024/01/01 16:42:15;;;;;;;4.57;1.40;;;;;7.40;100173.00;;;;9856973;29;20315;-78
2024/01/01 16:47:17;;;;;;;6.47;1.13;;;;;7.50;100187.00;;;;9875632;29;21119;-77
2024/01/01 16:52:18;;;;;;;3.37;1.23;;;;;7.40;100200.00;;;;9874057;29;20243;-78
2024/01/01 16:57:20;;;;;;;3.47;1.30;;;;;7.20;100199.00;;;;9858865;29;20302;-78
2024/01/01 17:02:22;;;;;;;3.63;1.30;;;;;7.10;100176.00;;;;9860627;29;20240;-78
2024/01/01 17:07:23;;;;;;;5.73;1.47;;;;;7.20;100181.00;;;;9886351;29;20239;-78
2024/01/01 17:12:24;;;;;;;5.13;1.43;;;;;7.10;100191.00;;;;9870272;29;20231;-80
2024/01/01 17:17:25;;;;;;;5.67;1.17;;;;;7.10;100196.00;;;;9877452;29;20234;-80
2024/01/01 17:22:27;;;;;;;11.10;1.57;;;;;7.10;100207.00;;;;9860628;29;20630;-85
2024/01/01 17:27:28;;;;;;;6.53;1.73;;;;;7.00;100199.00;;;;9881541;29;20319;-84
2024/01/01 17:32:29;;;;;;;7.30;1.93;;;;;6.80;100206.00;;;;9874856;29;20234;-82
2024/01/01 17:37:31;;;;;;;11.53;1.90;;;;;6.70;100192.00;;;;9868312;29;21104;-82
2024/01/01 17:42:32;;;;;;;3.50;1.70;;;;;6.60;100196.00;;;;9859317;29;20250;-81
2024/01/01 17:47:33;;;;;;;11.13;3.33;;;;;6.50;100188.00;;;;9891495;29;20641;-81
2024/01/01 17:52:37;;;;;;;9.00;3.13;;;;;6.50;100176.00;;;;9870913;29;20262;-82
2024/01/01 17:57:39;;;;;;;7.70;3.10;;;;;6.50;100172.00;;;;9870147;29;20247;-80
2024/01/01 18:02:40;;;;;;;11.27;3.00;;;;;6.50;100174.00;;;;9874778;29;20675;-83
2024/01/01 18:07:42;;;;;;;10.90;3.07;;;;;6.50;100159.00;;;;9857401;29;20239;-82
2024/01/01 18:12:43;;;;;;;13.07;3.50;;;;;6.50;100166.00;;;;9859710;29;20863;-82
2024/01/01 18:17:44;;;;;;;9.80;4.00;;;;;6.40;100158.00;;;;9858530;29;20222;-82
2024/01/01 18:22:46;;;;;;;11.77;3.80;;;;;6.50;100150.00;;;;9850412;29;20544;-81
2024/01/01 18:27:48;;;;;;;13.77;3.33;;;;;6.50;100139.00;;;;9891827;29;20317;-82
2024/01/01 18:32:49;;;;;;;14.80;3.70;;;;;6.50;100138.00;;;;9848887;29;20292;-80
2024/01/01 18:37:51;;;;;;;18.10;4.90;;;;;6.50;100131.00;;;;9871351;29;20237;-79
2024/01/01 18:42:52;;;;;;;11.83;2.90;;;;;6.50;100125.00;;;;9864881;29;20239;-79
2024/01/01 18:47:53;;;;;;;13.70;3.60;;;;;6.50;100126.00;;;;9850508;29;20727;-80
2024/01/01 18:52:55;;;;;;;19.37;4.43;;;;;6.50;100106.00;;;;9884462;29;20242;-79
2024/01/01 18:57:56;;;;;;;19.57;5.00;;;;;6.50;100115.00;;;;9870013;29;20238;-79
2024/01/01 19:02:57;;;;;;;17.70;4.47;;;;;6.50;100090.00;;;;9883205;29;20231;-78
2024/01/01 19:07:59;;;;;;;19.53;5.27;;;;;6.60;100085.00;;;;9877053;29;20340;-78
2024/01/01 19:13:01;;;;;;;21.97;4.70;;;;;6.60;100063.00;;;;9900491;29;20227;-77
2024/01/01 19:18:02;;;;;;;14.83;4.07;;;;;6.60;100051.00;;;;9874672;29;20227;-79
2024/01/01 19:23:03;;;;;;;15.73;4.47;;;;;6.50;100039.00;;;;9892638;29;20261;-78
2024/01/01 19:28:05;;;;;;;22.43;4.67;;;;;6.50;100023.00;;;;9869832;29;20643;-77
2024/01/01 19:33:07;;;;;;;18.13;4.23;;;;;6.50;100015.00;;;;9843308;29;20235;-79
2024/01/01 19:38:12;;;;;;;19.80;4.87;;;;;6.50;100001.00;;;;9869579;29;20317;-77
2024/01/01 19:43:13;;;;;;;16.23;5.00;;;;;6.50;99998.00;;;;9875922;29;20240;-82
2024/01/01 19:48:14;;;;;;;16.27;5.30;;;;;6.50;99981.00;;;;9893173;29;20246;-82
2024/01/01 19:53:15;;;;;;;11.83;3.93;;;;;6.50;99973.00;;;;9867707;29;20227;-82
2024/01/01 19:58:28;;;;;;;16.87;4.80;;;;;6.60;99970.00;;;;9892720;29;20832;-84
2024/01/01 20:03:29;;;;;;;19.23;4.40;;;;;6.60;99949.00;;;;9876605;29;20227;-82
2024/01/01 20:08:31;;;;;;;12.40;3.03;;;;;6.70;99942.00;;;;9866177;29;20239;-82
2024/01/01 20:13:41;;;;;;;15.43;3.10;;;;;6.80;99940.00;;;;9887224;29;20235;-82
2024/01/01 20:18:42;;;;;;;15.03;3.20;;;;;6.90;99939.00;;;;9857774;29;20289;-81
2024/01/01 20:23:43;;;;;;;9.77;2.80;;;;;7.00;99927.00;;;;9858999;29;20785;-83
2024/01/01 20:28:45;;;;;;;13.00;3.27;;;;;7.00;99911.00;;;;9877112;29;20288;-81
2024/01/01 20:33:46;;;;;;;13.27;3.27;;;;;7.00;99914.00;;;;9868758;29;20242;-82
2024/01/01 20:38:47;;;;;;;12.13;3.73;;;;;7.10;99903.00;;;;9874267;29;20870;-81
2024/01/01 20:43:50;;;;;;;14.17;2.67;;;;;7.20;99890.00;;;;9865506;29;20235;-82
2024/01/01 20:48:51;;;;;;;18.23;3.23;;;;;7.30;99887.00;;;;9858357;29;20239;-84
2024/01/01 20:53:53;;;;;;;11.50;2.73;;;;;7.30;99876.00;;;;9878431;29;20285;-82
2024/01/01 20:58:54;;;;;;;10.43;2.20;;;;;7.40;99862.00;;;;9886562;29;20235;-81
2024/01/01 21:03:56;;;;;;;8.43;2.40;;;;;7.50;99859.00;;;;9895908;29;20234;-81
2024/01/01 21:08:57;;;;;;;11.77;2.00;;;;;7.50;99849.00;;;;9847103;29;20289;-81
2024/01/01 21:13:59;;;;;;;7.30;1.70;;;;;7.60;99834.00;;;;9859370;29;20231;-81
2024/01/01 21:19:01;;;;;;;7.97;2.00;;;;;7.60;99817.00;;;;9874636;29;20762;-82
2024/01/01 21:24:02;;;;;;;14.50;2.33;;;;;7.70;99808.00;;;;9871301;29;20228;-82
2024/01/01 21:29:05;;;;;;;12.23;2.23;;;;;7.70;99806.00;;;;9874269;29;20764;-81
2024/01/01 21:34:07;;;;;;;8.47;2.07;;;;;7.70;99796.00;;;;9859831;29;20583;-82
2024/01/01 21:39:08;;;;;;;6.13;1.70;;;;;7.70;99788.00;;;;9874881;29;20906;-82
2024/01/01 21:44:10;;;;;;;6.90;1.80;;;;;7.70;99787.00;;;;9875524;29;20245;-83
2024/01/01 21:49:11;;;;;;;12.63;2.30;;;;;7.70;99773.00;;;;9876258;29;20244;-83
2024/01/01 21:54:15;;;;;;;6.67;1.20;;;;;7.80;99756.00;;;;9877150;29;20235;-80
2024/01/01 21:59:16;;;;;;;9.87;1.80;;;;;7.70;99740.00;;;;9863871;29;20302;-80
2024/01/01 22:04:18;;;;;;;9.97;1.70;;;;;7.70;99724.00;;;;9886658;29;20239;-79
2024/01/01 22:09:19;;;;;;;11.93;1.83;;;;;7.70;99708.00;;;;9876380;29;20239;-80
2024/01/01 22:14:20;;;;;;;6.87;1.90;;;;;7.60;99694.00;;;;9848025;29;21002;-82
2024/01/01 22:19:22;;;;;;;7.07;1.37;;;;;7.60;99685.00;;;;9848141;29;20238;-81
2024/01/01 22:24:23;;;;;;;6.30;1.63;;;;;7.60;99667.00;;;;9857283;29;20300;-83
2024/01/01 22:29:24;;;;;;;7.27;1.33;;;;;7.60;99656.00;;;;9873498;29;20235;-82
2024/01/01 22:34:26;;;;;;;7.80;1.60;;;;;7.60;99641.00;;;;9883407;29;20233;-83
2024/01/01 22:39:27;;;;;;;11.63;1.83;;;;;7.60;99621.00;;;;9867164;29;20287;-82
2024/01/01 22:44:29;;;;;;;6.33;1.60;;;;;7.60;99608.00;;;;9890707;29;20235;-84
2024/01/01 22:49:30;;;;;;;2.93;1.23;;;;;7.60;99604.00;;;;9872984;29;20247;-83
2024/01/01 22:54:31;;;;;;;8.43;1.37;;;;;7.60;99584.00;;;;9867043;29;20313;-84
2024/01/01 22:59:32;;;;;;;7.40;1.30;;;;;7.60;99568.00;;;;9889625;29;20647;-83
2024/01/01 23:04:34;;;;;;;4.17;1.03;;;;;7.60;99549.00;;;;9867566;29;20258;-82
2024/01/01 23:09:35;;;;;;;2.77;0.93;;;;;7.60;99542.00;;;;9903712;29;20243;-77
2024/01/01 23:14:36;;;;;;;4.47;1.63;;;;;7.60;99530.00;;;;9861578;29;20875;-78
2024/01/01 23:19:37;;;;;;;9.03;1.33;;;;;7.60;99515.00;;;;9872132;29;20330;-76
2024/01/01 23:24:38;;;;;;;7.33;1.40;;;;;7.60;99479.00;;;;9886118;29;20231;-78
2024/01/01 23:29:43;;;;;;;2.67;1.30;;;;;7.60;99448.00;;;;9890533;29;20263;-80
2024/01/01 23:34:44;;;;;;;3.23;1.20;;;;;7.60;99435.00;;;;9861282;29;20224;-76
2024/01/01 23:39:46;;;;;;;4.63;1.00;;;;;7.60;99425.00;;;;9865357;29;20227;-77
2024/01/01 23:44:47;;;;;;;4.47;1.20;;;;;7.60;99388.00;;;;9879020;29;20230;-79
2024/01/01 23:49:48;;;;;;;3.27;1.00;;;;;7.60;99380.00;;;;9886951;29;20311;-77
2024/01/01 23:54:49;;;;;;;3.90;1.23;;;;;7.60;99355.00;;;;9869067;29;20289;-78
2024/01/01 23:59:51;;;;;;;4.43;0.97;;;;;7.60;99356.00;;;;9884368;29;20242;-79
